Waldport, OR

8:00 PM PDT on April 18, 2015 (GMT -0700)
Mr.Wizard | | Change Station
CLOSE
Current Station
Personal Weather Station
Location: Waldport, OR
Elevation: 56 ft
Nearby Weather Stations

Elev 56 ft 44.42 °N, 124.08 °W | Updated 7 seconds ago

Clear
Clear
54.1 °F
Feels Like 54.1 °F
N
5.0
Wind Variable Wind from NNW
Gusts 11.0 mph

Today
High -- | Low -- °F
--% Chance of Precip.
Yesterday
High -- | Low -- °F
Precip. -- in
6:27 AM 8:04 PM
New Moon, 0% visible
Pressure 30.17 in
Visibility 5.0 miles
Clouds Clear
Dew Point 32 °F
Humidity 43%
Rainfall 0.00 in
Snow Depth Not available.
UV 0 out of 12
Pollen 9.60 out of 12
Air Quality Not available.
Flu Activity Regional
METAR KONP 190255Z AUTO 35012G17KT 5SM HZ CLR 12/08 A3017 RMK AO2

More Conditions Fewer Conditions

Pressure 30.17 in
Visibility 5.0 miles
Clouds Clear
Dew Point 32 °F
Humidity 43%
Rainfall 0.00 in
Snow Depth Not available.
UV 0 out of 12
Pollen 9.60 out of 12
Air Quality Not available.
Flu Activity Regional
METAR KONP 190255Z AUTO 35012G17KT 5SM HZ CLR 12/08 A3017 RMK AO2

More Conditions Fewer Conditions

10-Day Weather Forecast

Almanac

Astronomy

Apr. 18, 2015 Rise Set
Actual Time
Civil Twilight
Nautical Twilight
Astronomical Twilight
Moon
Length of Visible Light
Length of Day
Tomorrow will be .
, % of the Moon is Illuminated

Today's Extremes

State Highs State Lows

Community

WunderPhotos

Upload Photos

1,814,657 photos uploaded!

WunderBlogs® & News

Nearby

Air Quality

  Air Quality AQ Index Pollutant
Not available.

Snow Depth

Station Depth Elevation

Earthquake Activity

City Distance Mag. Time & Date
Minimum magnitude displayed is 2.5.

Coastal Water Temperatures

Place Temperature

Stations

Nearby Weather Stations

Station Location Temp. Windchill Dew Point Humidity Wind Precip. Elev Updated Type